createdAt,value
2019-05-05T00:01:50.296Z,92225.72
2019-05-05T00:04:24.749Z,92225.33
2019-05-05T00:06:57.849Z,92226.11
2019-05-05T00:09:30.949Z,92226.64
2019-05-05T00:12:05.469Z,92214.23
2019-05-05T00:14:40.297Z,92217.09
2019-05-05T00:17:20.869Z,92216.02
2019-05-05T00:19:54.983Z,92228.25
2019-05-05T00:22:28.549Z,92231.45
2019-05-05T00:25:01.911Z,92228.24
2019-05-05T00:27:35.109Z,92236.73
2019-05-05T00:30:08.228Z,92232.04
2019-05-05T00:32:41.849Z,92229.66
2019-05-05T00:35:15.029Z,92229.75
2019-05-05T00:37:48.130Z,92226.39
2019-05-05T00:40:21.057Z,92223.74
2019-05-05T00:42:54.725Z,92226.79
2019-05-05T00:45:30.069Z,92225.03
2019-05-05T00:48:07.549Z,92229.56
2019-05-05T00:50:40.989Z,92234.05
2019-05-05T00:53:14.700Z,92228.19
2019-05-05T00:55:48.408Z,92236.00
2019-05-05T00:58:21.458Z,92231.64
2019-05-05T01:00:58.916Z,92234.92
2019-05-05T01:03:31.889Z,92236.00
2019-05-05T01:06:09.596Z,92235.55
2019-05-05T01:08:44.518Z,92234.53
2019-05-05T01:11:19.269Z,92242.45
2019-05-05T01:13:54.552Z,92238.48
2019-05-05T01:16:27.249Z,92241.14
2019-05-05T01:19:00.449Z,92247.11
2019-05-05T01:21:34.916Z,92248.45
2019-05-05T01:24:08.630Z,92249.25
2019-05-05T01:26:41.868Z,92254.16
2019-05-05T01:29:16.309Z,92253.86
2019-05-05T01:31:49.748Z,92251.59
2019-05-05T01:34:27.289Z,92257.17
2019-05-05T01:37:01.888Z,92257.98
2019-05-05T01:39:42.609Z,92253.00
2019-05-05T01:42:17.597Z,92249.58
2019-05-05T01:44:50.656Z,92249.80
2019-05-05T01:47:25.402Z,92248.58
2019-05-05T01:49:59.458Z,92256.79
2019-05-05T01:52:34.299Z,92258.82
2019-05-05T01:55:07.217Z,92251.41
2019-05-05T01:57:40.793Z,92257.86
2019-05-05T02:00:14.908Z,92256.07
2019-05-05T02:02:49.249Z,92247.91
2019-05-05T02:05:24.199Z,92241.72
2019-05-05T02:07:57.128Z,92241.19
2019-05-05T02:10:30.376Z,92247.56
2019-05-05T02:13:04.657Z,92235.02
2019-05-05T02:15:38.468Z,92238.90
2019-05-05T02:18:12.009Z,92239.41
2019-05-05T02:20:45.171Z,92235.80
2019-05-05T02:23:18.477Z,92239.75
2019-05-05T02:25:51.717Z,92253.91
2019-05-05T02:28:26.209Z,92244.74
2019-05-05T02:31:05.521Z,92243.86
2019-05-05T02:33:38.517Z,92246.78
2019-05-05T02:36:12.309Z,92253.28
2019-05-05T02:38:46.157Z,92251.29
2019-05-05T02:41:20.489Z,92243.41
2019-05-05T02:43:55.715Z,92244.12
2019-05-05T02:46:28.470Z,92251.31
2019-05-05T02:49:05.037Z,92245.77
2019-05-05T02:51:36.890Z,92244.42
2019-05-05T02:54:10.408Z,92247.90
2019-05-05T02:56:44.914Z,92257.20
2019-05-05T02:59:19.368Z,92264.27
2019-05-05T03:01:54.113Z,92269.62
2019-05-05T03:04:27.633Z,92270.95
2019-05-05T03:07:00.534Z,92270.16
2019-05-05T03:09:34.672Z,92274.02
2019-05-05T03:12:10.856Z,92278.52
2019-05-05T03:14:44.599Z,92282.61
2019-05-05T03:17:18.272Z,92293.37
2019-05-05T03:19:53.398Z,92298.58
2019-05-05T03:22:25.932Z,92296.55
2019-05-05T03:24:59.780Z,92299.22
2019-05-05T03:27:34.142Z,92304.39
2019-05-05T03:30:07.400Z,92306.98
2019-05-05T03:32:40.573Z,92308.77
2019-05-05T03:35:13.613Z,92307.38
2019-05-05T03:37:46.493Z,92315.73
2019-05-05T03:40:21.240Z,92326.99
2019-05-05T03:42:58.500Z,92317.78
2019-05-05T03:45:35.992Z,92327.19
2019-05-05T03:48:09.052Z,92329.66
2019-05-05T03:50:42.113Z,92336.62
2019-05-05T03:53:14.972Z,92336.38
2019-05-05T03:55:48.511Z,92341.53
2019-05-05T03:58:21.431Z,92345.72
2019-05-05T04:00:56.509Z,92343.59
2019-05-05T04:03:29.969Z,92344.38
2019-05-05T04:06:07.676Z,92356.81
2019-05-05T04:08:41.129Z,92355.47
2019-05-05T04:11:14.426Z,92365.20
2019-05-05T04:13:48.329Z,92365.11
2019-05-05T04:16:28.829Z,92367.45
2019-05-05T04:19:03.625Z,92378.05
2019-05-05T04:21:37.049Z,92371.98
2019-05-05T04:24:09.978Z,92370.16
2019-05-05T04:26:44.037Z,92374.66
2019-05-05T04:29:17.349Z,92380.97
2019-05-05T04:31:50.309Z,92383.85
2019-05-05T04:34:24.101Z,92379.41
2019-05-05T04:36:57.528Z,92381.72
2019-05-05T04:39:30.588Z,92388.27
2019-05-05T04:42:04.807Z,92388.58
2019-05-05T04:44:38.348Z,92387.80
2019-05-05T04:47:23.669Z,92394.09
2019-05-05T04:49:58.374Z,92390.98
2019-05-05T04:52:34.194Z,92396.23
2019-05-05T04:55:07.228Z,92395.73
2019-05-05T04:57:40.576Z,92393.34
2019-05-05T05:00:13.854Z,92402.31
2019-05-05T05:02:50.090Z,92395.97
2019-05-05T05:05:24.689Z,92398.60
2019-05-05T05:07:58.179Z,92399.42
2019-05-05T05:10:31.608Z,92394.95
2019-05-05T05:13:04.973Z,92413.33
2019-05-05T05:15:38.236Z,92424.36
2019-05-05T05:18:17.970Z,92427.23
2019-05-05T05:20:51.288Z,92429.59
2019-05-05T05:23:25.116Z,92431.17
2019-05-05T05:25:58.568Z,92439.63
2019-05-05T05:28:31.648Z,92438.53
2019-05-05T05:31:04.640Z,92434.61
2019-05-05T05:33:37.628Z,92435.94
2019-05-05T05:36:10.689Z,92431.47
2019-05-05T05:38:45.008Z,92432.79
2019-05-05T05:41:19.631Z,92431.45
2019-05-05T05:44:03.654Z,92426.47
2019-05-05T05:46:38.269Z,92427.79
2019-05-05T05:49:13.504Z,92445.86
2019-05-05T05:51:46.810Z,92445.56
2019-05-05T05:54:19.613Z,92444.33
2019-05-05T05:56:53.785Z,92456.69
2019-05-05T05:59:27.029Z,92455.12
2019-05-05T06:02:11.513Z,92464.30
2019-05-05T06:04:34.529Z,92468.25
2019-05-05T06:07:08.414Z,92471.63
2019-05-05T06:09:41.290Z,92472.50
2019-05-05T06:12:14.330Z,92480.29
2019-05-05T06:14:47.648Z,92486.09
2019-05-05T06:17:20.748Z,92486.90
2019-05-05T06:19:53.749Z,92486.37
2019-05-05T06:22:29.276Z,92493.48
2019-05-05T06:25:01.174Z,92494.70
2019-05-05T06:27:34.432Z,92502.91
2019-05-05T06:30:07.335Z,92506.08
2019-05-05T06:32:45.698Z,92504.00
2019-05-05T06:35:14.828Z,92515.28
2019-05-05T06:37:54.600Z,92503.36
2019-05-05T06:40:29.588Z,92511.20
2019-05-05T06:43:23.125Z,92515.86
2019-05-05T06:46:04.050Z,92522.08
2019-05-05T06:48:37.410Z,92531.01
2019-05-05T06:51:10.269Z,92530.64
2019-05-05T06:53:43.647Z,92538.36
2019-05-05T06:56:17.231Z,92534.72
2019-05-05T06:58:50.491Z,92548.93
2019-05-05T07:01:24.833Z,92542.11
2019-05-05T07:03:57.908Z,92537.40
2019-05-05T07:06:31.068Z,92542.11
2019-05-05T07:09:05.579Z,92535.83
2019-05-05T07:11:38.830Z,92551.30
2019-05-05T07:14:14.590Z,92542.65
2019-05-05T07:16:47.490Z,92552.88
2019-05-05T07:19:20.469Z,92545.30
2019-05-05T07:21:53.924Z,92544.23
2019-05-05T07:24:27.488Z,92542.91
2019-05-05T07:27:00.436Z,92543.43
2019-05-05T07:29:34.322Z,92548.69
2019-05-05T07:32:07.951Z,92553.95
2019-05-05T07:35:00.893Z,92551.83
2019-05-05T07:37:34.486Z,92554.98
2019-05-05T07:40:07.797Z,92548.18
2019-05-05T07:42:40.989Z,92554.23
2019-05-05T07:45:22.112Z,92555.00
2019-05-05T07:47:48.713Z,92559.73
2019-05-05T07:50:31.321Z,92560.27
2019-05-05T07:53:10.573Z,92555.53
2019-05-05T07:55:31.547Z,92559.75
2019-05-05T07:58:04.557Z,92576.59
2019-05-05T08:00:37.609Z,92574.46
2019-05-05T08:03:10.973Z,92580.77
2019-05-05T08:05:44.316Z,92577.35
2019-05-05T08:08:17.241Z,92567.09
2019-05-05T08:10:50.192Z,92574.99
2019-05-05T08:13:24.346Z,92582.59
2019-05-05T08:16:00.071Z,92576.58
2019-05-05T08:18:38.069Z,92570.27
2019-05-05T08:21:11.001Z,92581.58
2019-05-05T08:23:54.065Z,92581.32
2019-05-05T08:26:46.846Z,92586.56
2019-05-05T08:29:29.596Z,92583.69
2019-05-05T08:32:09.909Z,92586.56
2019-05-05T08:34:56.578Z,92597.05
2019-05-05T08:37:17.557Z,92592.36
2019-05-05T08:39:50.549Z,92591.31
2019-05-05T08:42:24.640Z,92602.36
2019-05-05T08:44:57.928Z,92601.02
2019-05-05T08:47:30.949Z,92600.47
2019-05-05T08:50:04.190Z,92603.59
2019-05-05T08:52:38.089Z,92600.48
2019-05-05T08:55:10.950Z,92601.84
2019-05-05T08:57:44.699Z,92608.93
2019-05-05T09:00:17.897Z,92609.16
2019-05-05T09:02:50.869Z,92605.45
2019-05-05T09:05:23.961Z,92610.51
2019-05-05T09:07:57.389Z,92604.46
2019-05-05T09:10:30.249Z,92604.70
2019-05-05T09:13:03.892Z,92607.10
2019-05-05T09:15:37.809Z,92613.64
2019-05-05T09:18:11.009Z,92614.97
2019-05-05T09:20:44.556Z,92614.97
2019-05-05T09:23:18.568Z,92616.83
2019-05-05T09:26:09.669Z,92614.70
2019-05-05T09:28:44.465Z,92622.83
2019-05-05T09:31:17.236Z,92619.45
2019-05-05T09:33:50.350Z,92626.28
2019-05-05T09:36:24.302Z,92628.92
2019-05-05T09:38:57.610Z,92624.41
2019-05-05T09:41:30.757Z,92631.81
2019-05-05T09:44:04.339Z,92633.66
2019-05-05T09:46:39.653Z,92634.16
2019-05-05T09:49:14.053Z,92643.66
2019-05-05T09:51:47.188Z,92649.45
2019-05-05T09:54:20.610Z,92646.02
2019-05-05T09:56:53.844Z,92659.68
2019-05-05T09:59:26.969Z,92654.17
2019-05-05T10:01:59.929Z,92644.17
2019-05-05T10:04:34.249Z,92657.33
2019-05-05T10:07:07.857Z,92650.75
2019-05-05T10:09:41.190Z,92657.09
2019-05-05T10:12:14.208Z,92658.91
2019-05-05T10:14:47.448Z,92656.81
2019-05-05T10:17:20.589Z,92654.45
2019-05-05T10:19:54.654Z,92655.48
2019-05-05T10:22:27.834Z,92653.89
2019-05-05T10:25:18.718Z,92653.06
2019-05-05T10:27:53.822Z,92660.46
2019-05-05T10:30:26.649Z,92657.09
2019-05-05T10:32:59.610Z,92659.94
2019-05-05T10:35:34.464Z,92655.22
2019-05-05T10:38:07.770Z,92654.67
2019-05-05T10:40:40.648Z,92657.06
2019-05-05T10:43:14.840Z,92660.23
2019-05-05T10:45:48.389Z,92664.98
2019-05-05T10:48:23.458Z,92664.98
2019-05-05T10:50:56.109Z,92671.56
2019-05-05T10:53:29.309Z,92671.52
2019-05-05T10:56:04.253Z,92676.28
2019-05-05T10:58:36.910Z,92676.81
2019-05-05T11:01:10.037Z,92672.61
2019-05-05T11:03:44.654Z,92669.70
2019-05-05T11:06:17.733Z,92675.24
2019-05-05T11:08:50.569Z,92675.23
2019-05-05T11:11:24.088Z,92671.01
2019-05-05T11:13:57.050Z,92674.98
2019-05-05T11:16:30.029Z,92677.87
2019-05-05T11:19:04.346Z,92672.08
2019-05-05T11:21:37.629Z,92676.28
2019-05-05T11:24:10.572Z,92681.83
2019-05-05T11:26:44.650Z,92694.16
2019-05-05T11:29:17.849Z,92693.13
2019-05-05T11:31:51.409Z,92686.28
2019-05-05T11:34:25.848Z,92695.52
2019-05-05T11:37:00.349Z,92690.77
2019-05-05T11:39:34.047Z,92697.61
2019-05-05T11:42:07.676Z,92699.44
2019-05-05T11:44:40.566Z,92693.26
2019-05-05T11:47:14.051Z,92699.16
2019-05-05T11:49:47.289Z,92695.23
2019-05-05T11:52:20.605Z,92695.94
2019-05-05T11:54:54.402Z,92689.66
2019-05-05T11:57:28.269Z,92692.34
2019-05-05T12:00:01.211Z,92699.46
2019-05-05T12:02:34.168Z,92699.20
2019-05-05T12:05:06.975Z,92698.41
2019-05-05T12:07:39.870Z,92686.30
2019-05-05T12:10:23.723Z,92709.50
2019-05-05T12:12:57.053Z,92704.65
2019-05-05T12:15:30.102Z,92706.23
2019-05-05T12:18:03.845Z,92707.80
2019-05-05T12:20:37.293Z,92695.73
2019-05-05T12:23:11.209Z,92710.34
2019-05-05T12:25:49.961Z,92715.13
2019-05-05T12:28:24.116Z,92713.82
2019-05-05T12:30:58.911Z,92714.61
2019-05-05T12:33:33.534Z,92708.39
2019-05-05T12:36:06.459Z,92712.36
2019-05-05T12:38:39.412Z,92711.54
2019-05-05T12:41:14.816Z,92697.29
2019-05-05T12:43:47.397Z,92702.58
2019-05-05T12:46:38.710Z,92699.42
2019-05-05T12:49:13.856Z,92706.78
2019-05-05T12:51:47.628Z,92709.39
2019-05-05T12:54:20.570Z,92702.33
2019-05-05T12:56:53.997Z,92701.68
2019-05-05T12:59:28.369Z,92704.16
2019-05-05T13:02:01.349Z,92701.81
2019-05-05T13:04:34.649Z,92699.70
2019-05-05T13:07:08.350Z,92688.39
2019-05-05T13:09:44.042Z,92691.00
2019-05-05T13:12:17.417Z,92685.50
2019-05-05T13:14:50.609Z,92695.50
2019-05-05T13:17:24.503Z,92687.30
2019-05-05T13:20:02.131Z,92688.11
2019-05-05T13:22:44.331Z,92689.19
2019-05-05T13:25:31.110Z,92696.45
2019-05-05T13:28:04.228Z,92697.77
2019-05-05T13:30:37.231Z,92699.77
2019-05-05T13:33:10.749Z,92696.88
2019-05-05T13:35:43.662Z,92703.98
2019-05-05T13:38:16.617Z,92702.45
2019-05-05T13:40:49.789Z,92694.92
2019-05-05T13:43:23.802Z,92697.72
2019-05-05T13:46:08.708Z,92708.06
2019-05-05T13:48:44.411Z,92699.78
2019-05-05T13:51:19.035Z,92703.25
2019-05-05T13:53:53.854Z,92706.23
2019-05-05T13:56:26.509Z,92699.91
2019-05-05T13:58:59.840Z,92695.14
2019-05-05T14:01:34.161Z,92699.42
2019-05-05T14:04:07.683Z,92700.50
2019-05-05T14:06:40.617Z,92701.72
2019-05-05T14:09:13.980Z,92696.15
2019-05-05T14:11:47.180Z,92693.00
2019-05-05T14:14:20.092Z,92698.60
2019-05-05T14:16:53.866Z,92702.05
2019-05-05T14:19:27.290Z,92702.73
2019-05-05T14:22:00.314Z,92713.02
2019-05-05T14:24:34.809Z,92709.51
2019-05-05T14:27:08.423Z,92710.92
2019-05-05T14:29:42.718Z,92704.58
2019-05-05T14:32:17.452Z,92715.47
2019-05-05T14:34:51.833Z,92706.78
2019-05-05T14:37:35.711Z,92712.50
2019-05-05T14:40:08.431Z,92710.92
2019-05-05T14:42:43.375Z,92716.97
2019-05-05T14:45:16.002Z,92713.97
2019-05-05T14:47:48.914Z,92708.70
2019-05-05T14:50:24.226Z,92714.08
2019-05-05T14:52:57.291Z,92724.54
2019-05-05T14:55:30.818Z,92729.00
2019-05-05T14:58:04.076Z,92728.06
2019-05-05T15:00:39.470Z,92727.07
2019-05-05T15:03:13.954Z,92734.36
2019-05-05T15:06:04.025Z,92734.14
2019-05-05T15:08:55.398Z,92735.77
2019-05-05T15:11:28.028Z,92739.27
2019-05-05T15:14:01.125Z,92731.47
2019-05-05T15:16:34.713Z,92738.39
2019-05-05T15:19:08.291Z,92743.70
2019-05-05T15:21:41.469Z,92729.51
2019-05-05T15:24:14.368Z,92735.71
2019-05-05T15:26:51.845Z,92736.43
2019-05-05T15:29:22.202Z,92732.52
2019-05-05T15:31:55.034Z,92737.22
2019-05-05T15:34:27.951Z,92735.12
2019-05-05T15:37:00.847Z,92736.90
2019-05-05T15:39:33.833Z,92738.00
2019-05-05T15:42:07.271Z,92738.48
2019-05-05T15:44:39.991Z,92732.17
2019-05-05T15:47:12.933Z,92734.12
2019-05-05T15:49:46.301Z,92731.55
2019-05-05T15:52:20.225Z,92727.24
2019-05-05T15:54:54.086Z,92735.16
2019-05-05T15:57:26.971Z,92734.66
2019-05-05T15:59:59.931Z,92736.04
2019-05-05T16:02:32.752Z,92738.80
2019-05-05T16:05:05.652Z,92739.36
2019-05-05T16:07:38.771Z,92744.75
2019-05-05T16:10:13.556Z,92738.03
2019-05-05T16:12:46.331Z,92748.15
2019-05-05T16:15:29.537Z,92747.23
2019-05-05T16:18:09.631Z,92748.47
2019-05-05T16:21:00.229Z,92743.20
2019-05-05T16:23:49.662Z,92741.11
2019-05-05T16:26:24.546Z,92751.61
2019-05-05T16:28:57.591Z,92754.76
2019-05-05T16:31:30.825Z,92741.51
2019-05-05T16:34:03.911Z,92753.40
2019-05-05T16:36:37.189Z,92755.48
2019-05-05T16:39:10.378Z,92753.17
2019-05-05T16:41:43.465Z,92749.75
2019-05-05T16:44:18.011Z,92756.70
2019-05-05T16:46:50.956Z,92752.65
2019-05-05T16:49:24.379Z,92758.61
2019-05-05T16:52:00.804Z,92764.25
2019-05-05T16:54:40.012Z,92765.66
2019-05-05T16:57:14.419Z,92763.44
2019-05-05T16:59:47.697Z,92767.59
2019-05-05T17:02:20.641Z,92763.19
2019-05-05T17:04:53.887Z,92768.28
2019-05-05T17:07:26.816Z,92763.02
2019-05-05T17:09:59.700Z,92765.92
2019-05-05T17:12:33.771Z,92777.52
2019-05-05T17:15:09.649Z,92769.67
2019-05-05T17:17:44.443Z,92778.92
2019-05-05T17:20:18.563Z,92776.81
2019-05-05T17:22:54.605Z,92775.53
2019-05-05T17:25:27.931Z,92782.61
2019-05-05T17:28:01.151Z,92777.29
2019-05-05T17:30:34.203Z,92782.28
2019-05-05T17:33:07.669Z,92776.88
2019-05-05T17:35:40.674Z,92787.53
2019-05-05T17:38:15.170Z,92787.53
2019-05-05T17:40:47.637Z,92786.83
2019-05-05T17:43:31.132Z,92781.81
2019-05-05T17:46:08.395Z,92781.93
2019-05-05T17:48:53.853Z,92781.88
2019-05-05T17:51:38.236Z,92794.52
2019-05-05T17:54:18.856Z,92791.39
2019-05-05T17:56:53.038Z,92781.22
2019-05-05T17:59:26.569Z,92782.77
2019-05-05T18:01:59.837Z,92786.56
2019-05-05T18:04:33.742Z,92784.08
2019-05-05T18:07:09.434Z,92779.42
2019-05-05T18:10:00.395Z,92794.91
2019-05-05T18:12:34.855Z,92787.52
2019-05-05T18:15:25.530Z,92778.70
2019-05-05T18:17:58.572Z,92778.56
2019-05-05T18:20:31.512Z,92784.30
2019-05-05T18:23:04.529Z,92790.69
2019-05-05T18:25:37.588Z,92790.03
2019-05-05T18:28:17.021Z,92803.19
2019-05-05T18:30:45.110Z,92802.06
2019-05-05T18:33:18.091Z,92809.23
2019-05-05T18:35:51.229Z,92811.73
2019-05-05T18:38:24.029Z,92803.84
2019-05-05T18:40:58.588Z,92807.44
2019-05-05T18:43:39.290Z,92806.91
2019-05-05T18:46:13.641Z,92808.91
2019-05-05T18:48:48.029Z,92815.98
2019-05-05T18:51:21.018Z,92820.89
2019-05-05T18:53:55.029Z,92813.34
2019-05-05T18:56:28.808Z,92816.22
2019-05-05T18:59:04.609Z,92820.57
2019-05-05T19:01:40.789Z,92814.98
2019-05-05T19:04:13.745Z,92821.94
2019-05-05T19:06:54.562Z,92814.63
2019-05-05T19:09:27.928Z,92815.77
2019-05-05T19:12:00.752Z,92821.13
2019-05-05T19:14:35.037Z,92812.14
2019-05-05T19:17:08.269Z,92808.85
2019-05-05T19:19:44.666Z,92813.08
2019-05-05T19:22:17.255Z,92805.78
2019-05-05T19:24:50.472Z,92821.92
2019-05-05T19:27:24.051Z,92811.20
2019-05-05T19:29:57.429Z,92825.21
2019-05-05T19:32:30.570Z,92820.81
2019-05-05T19:35:03.975Z,92831.16
2019-05-05T19:37:37.230Z,92824.89
2019-05-05T19:40:10.015Z,92820.84
2019-05-05T19:42:45.931Z,92821.23
2019-05-05T19:45:18.396Z,92826.60
2019-05-05T19:47:51.308Z,92815.79
2019-05-05T19:50:25.877Z,92815.46
2019-05-05T19:52:59.313Z,92828.05
2019-05-05T19:55:33.796Z,92837.05
2019-05-05T19:58:07.277Z,92840.92
2019-05-05T20:00:40.188Z,92824.50
2019-05-05T20:03:14.391Z,92828.84
2019-05-05T20:05:47.509Z,92834.58
2019-05-05T20:08:20.689Z,92833.59
2019-05-05T20:10:54.303Z,92838.94
2019-05-05T20:13:27.868Z,92829.49
2019-05-05T20:16:18.633Z,92826.41
2019-05-05T20:18:51.670Z,92827.16
2019-05-05T20:21:24.729Z,92821.48
2019-05-05T20:23:57.849Z,92828.23
2019-05-05T20:26:30.989Z,92823.00
2019-05-05T20:29:13.364Z,92810.36
2019-05-05T20:31:38.479Z,92819.63
2019-05-05T20:34:24.296Z,92804.91
2019-05-05T20:37:08.802Z,92797.28
2019-05-05T20:39:43.697Z,92805.16
2019-05-05T20:42:16.742Z,92795.79
2019-05-05T20:44:50.110Z,92796.17
2019-05-05T20:47:23.780Z,92798.00
2019-05-05T20:49:57.336Z,92814.36
2019-05-05T20:52:30.369Z,92803.27
2019-05-05T20:55:04.796Z,92794.36
2019-05-05T20:57:38.729Z,92790.03
2019-05-05T21:00:14.512Z,92811.84
2019-05-05T21:02:48.008Z,92829.03
2019-05-05T21:05:20.925Z,92826.42
2019-05-05T21:07:54.120Z,92841.12
2019-05-05T21:10:27.137Z,92848.17
2019-05-05T21:13:00.249Z,92859.87
2019-05-05T21:15:33.973Z,92858.66
2019-05-05T21:18:07.768Z,92847.66
2019-05-05T21:20:40.817Z,92855.67
2019-05-05T21:23:18.133Z,92849.38
2019-05-05T21:26:04.851Z,92847.25
2019-05-05T21:28:37.850Z,92842.80
2019-05-05T21:31:11.315Z,92841.85
2019-05-05T21:33:45.215Z,92846.36
2019-05-05T21:36:18.748Z,92827.02
2019-05-05T21:38:51.669Z,92842.94
2019-05-05T21:41:24.792Z,92838.93
2019-05-05T21:43:58.029Z,92853.95
2019-05-05T21:46:30.929Z,92852.86
2019-05-05T21:49:04.054Z,92854.31
2019-05-05T21:51:47.869Z,92862.74
2019-05-05T21:54:36.629Z,92864.58
2019-05-05T21:57:27.837Z,92868.42
2019-05-05T22:00:00.782Z,92864.46
2019-05-05T22:02:34.514Z,92860.55
2019-05-05T22:05:08.175Z,92868.02
2019-05-05T22:07:41.468Z,92867.54
2019-05-05T22:10:14.428Z,92874.95
2019-05-05T22:12:47.408Z,92874.52
2019-05-05T22:15:20.489Z,92871.30
2019-05-05T22:17:54.273Z,92870.83
2019-05-05T22:20:33.930Z,92875.06
2019-05-05T22:23:08.008Z,92878.43
2019-05-05T22:25:41.310Z,92885.44
2019-05-05T22:28:14.388Z,92886.57
2019-05-05T22:30:48.177Z,92875.80
2019-05-05T22:33:21.234Z,92877.13
2019-05-05T22:35:54.879Z,92886.51
2019-05-05T22:38:28.648Z,92875.45
2019-05-05T22:41:01.568Z,92862.23
2019-05-05T22:43:34.817Z,92862.48
2019-05-05T22:46:07.929Z,92860.98
2019-05-05T22:48:40.950Z,92874.25
2019-05-05T22:51:14.392Z,92876.50
2019-05-05T22:53:48.368Z,92876.77
2019-05-05T22:56:21.233Z,92880.81
2019-05-05T22:58:54.700Z,92881.47
2019-05-05T23:01:28.109Z,92872.61
2019-05-05T23:04:05.569Z,92880.06
2019-05-05T23:06:54.213Z,92872.45
2019-05-05T23:09:27.349Z,92877.39
2019-05-05T23:12:00.408Z,92886.57
2019-05-05T23:14:34.217Z,92875.53
2019-05-05T23:17:07.349Z,92881.34
2019-05-05T23:19:44.997Z,92879.36
2019-05-05T23:22:17.889Z,92876.45
2019-05-05T23:24:58.369Z,92881.31
2019-05-05T23:27:50.789Z,92884.88
2019-05-05T23:30:37.875Z,92885.16
2019-05-05T23:33:00.108Z,92887.55
2019-05-05T23:35:34.431Z,92867.33
2019-05-05T23:38:07.610Z,92882.50
2019-05-05T23:40:40.568Z,92877.09
2019-05-05T23:43:14.007Z,92870.81
2019-05-05T23:45:47.152Z,92875.11
2019-05-05T23:48:23.582Z,92876.23
2019-05-05T23:50:55.037Z,92879.39
2019-05-05T23:53:28.196Z,92879.69
2019-05-05T23:56:03.865Z,92870.34
2019-05-05T23:58:36.508Z,92876.37
